Time;durP1;ratioP1;P1;durP2;ratioP2;P2;SDS_P1;SDS_P2;PMS_P1;PMS_P2;Temp;Humidity;BMP_temperature;BMP_pressure;BME280_temperature;BME280_humidity;BME280_pressure;Samples;Min_cycle;Max_cycle;Signal;HPM_P1;HPM_P2
2022/06/04 00:02:05;;;;;;;3.20;2.90;;;21.50;68.10;;;;;;5097974;28;20195;-69
2022/06/04 00:04:31;;;;;;;3.08;2.78;;;21.40;68.00;;;;;;5097314;28;20180;-70
2022/06/04 00:06:58;;;;;;;3.88;3.17;;;21.40;68.00;;;;;;5097214;28;20291;-70
2022/06/04 00:09:27;;;;;;;3.42;2.65;;;21.40;68.00;;;;;;5097751;28;20172;-70
2022/06/04 00:17:04;;;;;;;3.38;3.08;;;21.40;67.90;;;;;;5114403;28;20204;-70
2022/06/04 00:19:30;;;;;;;3.47;3.08;;;21.40;67.80;;;;;;5097858;28;20202;-70
2022/06/04 00:21:56;;;;;;;3.30;2.38;;;21.40;67.90;;;;;;5097643;28;20188;-70
2022/06/04 00:24:22;;;;;;;2.75;2.40;;;21.40;67.90;;;;;;5097519;28;20549;-70
2022/06/04 00:26:48;;;;;;;2.60;2.40;;;21.40;67.80;;;;;;5097785;28;20204;-69
2022/06/04 00:29:13;;;;;;;4.32;2.90;;;21.40;67.80;;;;;;5097887;28;20187;-70
2022/06/04 00:31:39;;;;;;;3.00;2.70;;;21.40;67.80;;;;;;5115033;28;20176;-70
2022/06/04 00:34:06;;;;;;;2.70;2.50;;;21.40;67.80;;;;;;5097834;28;20263;-70
2022/06/04 00:36:33;;;;;;;3.33;2.88;;;21.40;67.80;;;;;;5097658;28;20191;-69
2022/06/04 00:38:59;;;;;;;3.58;2.70;;;21.40;67.80;;;;;;5097938;28;20188;-69
2022/06/04 00:41:43;;;;;;;3.30;2.90;;;21.40;68.50;;;;;;5095324;28;20214;-70
2022/06/04 00:44:17;;;;;;;3.22;2.90;;;21.40;67.70;;;;;;5077110;28;20196;-70
2022/06/04 00:47:05;;;;;;;3.00;2.80;;;21.40;67.70;;;;;;5077316;28;20211;-70
2022/06/04 00:49:31;;;;;;;2.83;2.50;;;21.40;67.70;;;;;;5094336;28;20217;-70
2022/06/04 00:51:58;;;;;;;3.17;2.58;;;21.40;67.70;;;;;;5094175;28;20208;-70
2022/06/04 00:54:24;;;;;;;3.75;2.70;;;21.40;67.60;;;;;;5077416;28;20271;-70
2022/06/04 00:57:23;;;;;;;3.78;2.70;;;21.40;67.70;;;;;;5076948;28;20207;-70
2022/06/04 01:00:10;;;;;;;2.70;2.50;;;21.40;67.60;;;;;;5077094;28;20207;-70
2022/06/04 01:03:10;;;;;;;3.28;2.97;;;21.40;67.90;;;;;;5076858;28;20185;-70
2022/06/04 01:05:52;;;;;;;3.00;2.80;;;21.40;67.70;;;;;;5077488;28;20181;-70
2022/06/04 01:08:43;;;;;;;3.13;2.83;;;21.40;67.60;;;;;;5076419;28;20304;-70
2022/06/04 01:15:04;;;;;;;3.15;2.95;;;21.40;67.60;;;;;;5093277;28;20185;-70
2022/06/04 01:18:07;;;;;;;3.10;2.83;;;21.40;67.60;;;;;;5075332;28;20204;-69
2022/06/04 01:20:48;;;;;;;3.25;2.63;;;21.40;67.60;;;;;;5068421;28;20254;-70
2022/06/04 01:23:42;;;;;;;2.70;2.50;;;21.40;67.60;;;;;;5076307;28;20177;-70
2022/06/04 01:26:36;;;;;;;2.97;2.78;;;21.40;67.50;;;;;;5075635;28;20231;-70
2022/06/04 01:29:14;;;;;;;3.38;2.78;;;21.40;67.50;;;;;;5076043;28;20181;-70
2022/06/04 01:32:07;;;;;;;2.88;2.58;;;21.30;67.40;;;;;;5076055;28;20275;-70
2022/06/04 01:35:01;;;;;;;2.70;2.50;;;21.40;67.50;;;;;;5076071;28;20177;-70
2022/06/04 01:37:45;;;;;;;3.10;2.50;;;21.30;67.40;;;;;;5075649;28;20205;-70
2022/06/04 01:43:07;;;;;;;2.92;2.70;;;21.40;67.50;;;;;;5092772;28;20169;-70
2022/06/04 01:45:35;;;;;;;3.97;2.90;;;21.30;67.40;;;;;;5075545;28;20659;-70
2022/06/04 01:48:06;;;;;;;2.85;2.63;;;21.40;67.40;;;;;;5092642;28;20228;-70
2022/06/04 01:50:47;;;;;;;2.63;2.42;;;21.40;67.40;;;;;;5075527;28;20247;-70
2022/06/04 01:53:16;;;;;;;2.47;2.28;;;21.40;67.40;;;;;;5075697;28;20730;-70
2022/06/04 01:55:53;;;;;;;2.50;2.30;;;21.30;67.20;;;;;;5075115;28;20177;-69
2022/06/04 01:58:28;;;;;;;2.33;2.13;;;21.30;67.20;;;;;;5075553;28;20215;-70
2022/06/04 02:01:10;;;;;;;2.60;2.40;;;21.30;67.20;;;;;;5075827;28;20196;-69
2022/06/04 02:03:53;;;;;;;2.90;2.70;;;21.30;67.20;;;;;;5075906;28;20185;-70
2022/06/04 02:06:24;;;;;;;2.58;2.38;;;21.30;67.20;;;;;;5075712;28;20177;-69
2022/06/04 02:09:01;;;;;;;2.58;2.38;;;21.30;67.10;;;;;;5075437;28;20188;-70
2022/06/04 02:11:29;;;;;;;2.67;2.47;;;21.30;67.10;;;;;;5092338;28;20228;-70
2022/06/04 02:14:03;;;;;;;2.75;2.55;;;21.30;68.00;;;;;;5092928;28;20180;-70
2022/06/04 02:16:52;;;;;;;2.75;2.45;;;21.30;67.10;;;;;;5076225;28;20400;-69
2022/06/04 02:19:18;;;;;;;2.22;2.13;;;21.30;67.10;;;;;;5075386;28;20169;-69
2022/06/04 02:21:45;;;;;;;2.42;2.25;;;21.30;67.10;;;;;;5075815;28;20242;-70
2022/06/04 02:24:11;;;;;;;2.60;2.40;;;21.30;67.10;;;;;;5075948;28;20185;-70
2022/06/04 02:26:41;;;;;;;2.65;2.45;;;21.30;67.10;;;;;;5092925;28;20200;-70
2022/06/04 02:29:07;;;;;;;2.70;2.50;;;21.30;67.10;;;;;;5077689;28;20181;-69
2022/06/04 02:31:40;;;;;;;2.65;2.45;;;21.30;67.10;;;;;;5080152;28;20213;-69
2022/06/04 02:34:17;;;;;;;2.83;2.63;;;21.30;67.10;;;;;;5069960;28;20177;-69
2022/06/04 02:37:13;;;;;;;2.55;2.38;;;21.30;67.10;;;;;;5093604;28;20204;-70
2022/06/04 02:40:01;;;;;;;2.80;2.60;;;21.30;67.10;;;;;;5095532;28;20189;-70
2022/06/04 02:42:46;;;;;;;2.42;2.22;;;21.30;67.00;;;;;;5076788;28;20193;-70
2022/06/04 02:45:27;;;;;;;2.78;2.58;;;21.30;67.00;;;;;;5072582;28;20670;-70
2022/06/04 02:48:32;;;;;;;2.67;2.47;;;21.30;67.00;;;;;;5079221;28;20211;-70
2022/06/04 02:51:25;;;;;;;2.63;2.42;;;21.30;67.00;;;;;;5096138;28;20208;-70
2022/06/04 02:53:53;;;;;;;2.03;1.90;;;21.30;67.00;;;;;;5079121;28;20185;-70
2022/06/04 02:56:27;;;;;;;2.35;2.15;;;21.30;66.90;;;;;;5079389;28;20215;-70
2022/06/04 02:59:00;;;;;;;2.40;2.20;;;21.30;66.90;;;;;;5078650;28;20183;-70
2022/06/04 03:01:28;;;;;;;2.45;2.25;;;21.30;66.90;;;;;;5079384;28;20197;-70
2022/06/04 03:03:54;;;;;;;2.33;2.13;;;21.30;67.00;;;;;;5079383;28;20180;-70
2022/06/04 03:06:32;;;;;;;2.65;2.25;;;21.30;66.90;;;;;;5078702;28;20610;-70
2022/06/04 03:09:05;;;;;;;2.42;2.25;;;21.30;66.90;;;;;;5095870;28;20231;-69
2022/06/04 03:11:45;;;;;;;2.53;2.33;;;21.30;67.00;;;;;;5078886;28;20282;-70
2022/06/04 03:14:13;;;;;;;2.50;2.22;;;21.30;66.90;;;;;;5079354;28;20177;-70
2022/06/04 03:16:42;;;;;;;2.67;2.35;;;21.30;67.70;;;;;;5078847;28;20208;-70
2022/06/04 03:19:10;;;;;;;2.67;2.17;;;21.30;66.90;;;;;;5079011;28;20184;-70
2022/06/04 03:21:41;;;;;;;2.22;2.00;;;21.30;66.90;;;;;;5080427;28;20185;-70
2022/06/04 03:24:10;;;;;;;2.35;2.15;;;21.30;66.90;;;;;;5079724;28;20629;-70
2022/06/04 03:26:35;;;;;;;1.83;1.70;;;21.30;66.90;;;;;;5077647;28;20205;-70
2022/06/04 03:29:03;;;;;;;2.15;2.00;;;21.30;66.90;;;;;;5078383;28;20185;-69
2022/06/04 03:31:29;;;;;;;1.98;1.77;;;21.30;66.80;;;;;;5077984;28;20212;-70
2022/06/04 03:33:56;;;;;;;1.67;1.58;;;21.30;66.80;;;;;;5095137;28;20203;-69
2022/06/04 03:36:25;;;;;;;2.10;1.90;;;21.30;66.90;;;;;;5078365;28;20165;-70
2022/06/04 03:38:55;;;;;;;2.05;1.95;;;21.20;66.70;;;;;;5078359;28;20189;-70
2022/06/04 03:41:21;;;;;;;2.10;1.98;;;21.30;66.80;;;;;;5077693;28;20193;-70
2022/06/04 03:43:51;;;;;;;2.25;2.05;;;21.30;66.80;;;;;;5094719;28;20271;-70
2022/06/04 03:46:24;;;;;;;2.45;2.25;;;21.20;66.70;;;;;;5077636;28;20185;-69
2022/06/04 03:48:51;;;;;;;2.20;2.10;;;21.20;66.70;;;;;;5077541;28;20636;-69
2022/06/04 03:51:18;;;;;;;2.30;2.10;;;21.30;66.90;;;;;;5077578;28;20208;-69
2022/06/04 03:53:43;;;;;;;2.40;2.20;;;21.30;66.80;;;;;;5077778;28;20177;-69
2022/06/04 03:56:09;;;;;;;2.50;2.33;;;21.20;66.70;;;;;;5095304;28;20192;-69
2022/06/04 03:58:36;;;;;;;2.40;2.20;;;21.30;66.80;;;;;;5093889;28;20201;-69
2022/06/04 04:01:27;;;;;;;2.15;2.00;;;21.20;66.80;;;;;;5076879;28;20203;-69
2022/06/04 04:03:53;;;;;;;2.00;1.90;;;21.30;66.80;;;;;;5077521;28;20195;-69
2022/06/04 04:06:31;;;;;;;2.00;1.90;;;21.30;66.80;;;;;;5077112;28;20561;-69
2022/06/04 04:08:58;;;;;;;2.30;2.10;;;21.30;67.70;;;;;;5077271;28;20508;-69
2022/06/04 04:11:27;;;;;;;2.10;1.90;;;21.30;66.90;;;;;;5077363;28;20224;-69
2022/06/04 04:13:53;;;;;;;2.67;1.92;;;21.20;66.80;;;;;;5077980;28;20276;-69
2022/06/04 04:16:22;;;;;;;2.20;2.10;;;21.20;67.70;;;;;;5076880;28;20275;-69
2022/06/04 04:18:48;;;;;;;2.55;2.05;;;21.30;67.00;;;;;;5077076;28;20261;-69
2022/06/04 04:21:18;;;;;;;2.35;2.15;;;21.30;67.80;;;;;;5077626;28;20181;-69
2022/06/04 04:23:44;;;;;;;2.08;1.98;;;21.30;67.10;;;;;;5077442;28;20249;-69
2022/06/04 04:26:14;;;;;;;2.45;2.25;;;21.30;67.10;;;;;;5077156;28;20279;-69
2022/06/04 04:28:41;;;;;;;2.33;2.13;;;21.20;67.00;;;;;;5075692;28;20212;-69
2022/06/04 04:31:17;;;;;;;2.17;1.90;;;21.20;67.00;;;;;;5077524;28;20247;-69
2022/06/04 04:33:44;;;;;;;2.20;2.03;;;21.20;67.00;;;;;;5077898;28;20182;-69
2022/06/04 04:36:10;;;;;;;2.22;1.92;;;21.20;67.00;;;;;;5077878;28;20184;-69
2022/06/04 04:38:37;;;;;;;2.00;1.90;;;21.20;67.00;;;;;;5077554;28;20201;-69
2022/06/04 04:41:12;;;;;;;2.35;2.17;;;21.30;67.00;;;;;;5077643;28;20185;-69
2022/06/04 04:43:39;;;;;;;1.90;1.80;;;21.30;67.10;;;;;;5095132;28;20192;-70
2022/06/04 04:46:09;;;;;;;1.98;1.88;;;21.20;66.90;;;;;;5094841;28;20222;-69
2022/06/04 04:48:36;;;;;;;2.30;2.10;;;21.20;67.00;;;;;;5077536;28;20200;-69
2022/06/04 04:51:02;;;;;;;2.10;2.00;;;21.30;67.10;;;;;;5077003;28;20276;-69
2022/06/04 04:53:28;;;;;;;1.90;1.80;;;21.20;67.10;;;;;;5093931;28;20303;-69
2022/06/04 04:55:54;;;;;;;1.90;1.80;;;21.20;67.10;;;;;;5093957;28;20189;-69
2022/06/04 04:58:19;;;;;;;2.38;2.17;;;21.20;67.10;;;;;;5076792;28;20208;-69
2022/06/04 05:00:46;;;;;;;2.10;2.00;;;21.20;67.10;;;;;;5074743;28;20550;-69
2022/06/04 05:03:12;;;;;;;2.60;2.40;;;21.20;67.20;;;;;;5075137;28;20185;-68
2022/06/04 05:05:38;;;;;;;2.55;2.35;;;21.30;67.40;;;;;;5075725;28;20627;-69
2022/06/04 05:08:04;;;;;;;2.70;2.50;;;21.30;67.40;;;;;;5076504;28;20289;-69
2022/06/04 05:10:30;;;;;;;3.08;2.88;;;21.30;67.40;;;;;;5075820;28;20232;-69
2022/06/04 05:12:56;;;;;;;2.90;2.70;;;21.20;67.30;;;;;;5077097;28;20181;-69
2022/06/04 05:15:23;;;;;;;2.60;2.40;;;21.20;67.50;;;;;;5075787;28;20193;-69
2022/06/04 05:17:49;;;;;;;2.40;2.25;;;21.20;67.60;;;;;;5075405;28;20710;-70
2022/06/04 05:20:16;;;;;;;2.58;2.38;;;21.20;67.80;;;;;;5076194;28;20184;-69
2022/06/04 05:22:42;;;;;;;2.75;2.55;;;21.20;67.60;;;;;;5075624;28;20185;-69
2022/06/04 05:25:10;;;;;;;2.40;2.20;;;21.20;67.40;;;;;;5075916;28;20279;-69
2022/06/04 05:27:36;;;;;;;2.53;2.20;;;21.20;67.50;;;;;;5075822;28;20197;-69
2022/06/04 05:30:02;;;;;;;2.45;2.28;;;21.30;67.80;;;;;;5076269;28;20654;-67
2022/06/04 05:32:27;;;;;;;2.47;2.28;;;21.30;67.90;;;;;;5076097;28;20181;-69
2022/06/04 05:34:53;;;;;;;1.92;1.83;;;21.30;67.90;;;;;;5076028;28;20185;-69
2022/06/04 05:37:19;;;;;;;2.88;2.17;;;21.30;67.70;;;;;;5093353;28;20317;-69
2022/06/04 05:39:45;;;;;;;2.38;2.17;;;21.30;67.90;;;;;;5075888;28;20234;-69
2022/06/04 05:42:11;;;;;;;2.13;2.00;;;21.20;67.90;;;;;;5076182;28;20886;-69
2022/06/04 05:44:37;;;;;;;2.10;1.90;;;21.30;68.00;;;;;;5075527;28;20288;-69
2022/06/04 05:47:04;;;;;;;2.22;2.03;;;21.30;68.20;;;;;;5093166;28;20208;-68
2022/06/04 05:49:31;;;;;;;2.13;1.92;;;21.30;68.00;;;;;;5075811;28;20220;-69
2022/06/04 05:51:57;;;;;;;2.25;2.15;;;21.30;68.00;;;;;;5076049;28;20177;-68
2022/06/04 05:54:23;;;;;;;2.00;1.90;;;21.30;67.90;;;;;;5074828;28;20192;-67
2022/06/04 05:56:51;;;;;;;3.03;2.20;;;21.30;68.60;;;;;;5074625;28;20208;-67
2022/06/04 05:59:21;;;;;;;2.50;2.30;;;21.30;68.00;;;;;;5091229;28;20185;-68
2022/06/04 06:01:49;;;;;;;2.67;2.00;;;21.30;68.00;;;;;;5070829;28;20201;-67
2022/06/04 06:04:18;;;;;;;2.15;1.95;;;21.30;68.00;;;;;;5077620;28;20188;-70
2022/06/04 06:06:48;;;;;;;2.00;1.90;;;21.30;67.90;;;;;;5099989;28;20207;-69
2022/06/04 06:09:18;;;;;;;2.30;2.10;;;21.30;68.00;;;;;;5099106;28;20184;-69
2022/06/04 06:11:45;;;;;;;2.28;1.85;;;21.30;68.00;;;;;;5086234;28;20201;-69
2022/06/04 06:14:12;;;;;;;2.25;1.92;;;21.30;68.00;;;;;;5062630;28;20228;-69
2022/06/04 06:16:44;;;;;;;2.28;2.08;;;21.30;68.40;;;;;;5086620;28;20255;-69
2022/06/04 06:19:13;;;;;;;1.95;1.85;;;21.40;68.00;;;;;;5058726;28;20185;-69
2022/06/04 06:21:39;;;;;;;2.17;1.95;;;21.40;68.00;;;;;;5059074;28;20182;-69
2022/06/04 06:24:08;;;;;;;1.73;1.63;;;21.40;67.90;;;;;;5059236;28;20284;-69
2022/06/04 06:26:45;;;;;;;1.98;1.88;;;21.40;67.80;;;;;;5058700;28;20189;-69
2022/06/04 06:29:11;;;;;;;2.45;2.25;;;21.40;68.40;;;;;;5062205;28;20183;-69
2022/06/04 06:31:38;;;;;;;2.13;1.77;;;21.40;68.40;;;;;;5077485;28;20198;-69
2022/06/04 06:34:04;;;;;;;2.05;1.80;;;21.40;68.50;;;;;;5083705;28;20173;-70
2022/06/04 06:36:30;;;;;;;2.00;1.90;;;21.40;68.50;;;;;;5058974;28;20285;-69
2022/06/04 06:38:56;;;;;;;2.20;2.10;;;21.40;68.20;;;;;;5076630;28;20205;-69
2022/06/04 06:41:24;;;;;;;2.00;1.90;;;21.40;68.30;;;;;;5079225;28;20194;-69
2022/06/04 06:43:51;;;;;;;1.95;1.80;;;21.40;68.30;;;;;;5078660;28;20200;-69
2022/06/04 06:46:35;;;;;;;2.03;1.83;;;21.40;68.30;;;;;;5079156;28;20185;-68
2022/06/04 06:49:28;;;;;;;1.92;1.83;;;21.40;68.30;;;;;;5079130;28;20283;-69
2022/06/04 06:52:01;;;;;;;1.88;1.77;;;21.40;68.40;;;;;;5077873;28;20209;-69
2022/06/04 06:54:34;;;;;;;1.83;1.73;;;21.40;69.20;;;;;;5074541;28;20797;-69
2022/06/04 06:57:03;;;;;;;2.25;2.00;;;21.40;68.50;;;;;;5095668;28;20213;-69
2022/06/04 06:59:29;;;;;;;2.35;2.10;;;21.40;68.40;;;;;;5075095;28;20182;-69
2022/06/04 07:01:57;;;;;;;2.20;2.00;;;21.40;68.50;;;;;;5058914;28;20194;-69
2022/06/04 07:04:25;;;;;;;1.95;1.85;;;21.40;68.50;;;;;;5062416;28;20195;-66
2022/06/04 07:07:01;;;;;;;2.08;1.98;;;21.40;68.50;;;;;;5077429;28;20211;-67
2022/06/04 07:09:35;;;;;;;2.20;2.00;;;21.40;68.40;;;;;;5076938;28;20188;-68
2022/06/04 07:12:03;;;;;;;2.17;1.98;;;21.40;68.10;;;;;;5077222;28;20188;-66
2022/06/04 07:14:30;;;;;;;1.90;1.80;;;21.40;68.10;;;;;;5076791;28;20195;-68
2022/06/04 07:16:57;;;;;;;1.95;1.83;;;21.40;68.30;;;;;;5077741;28;20201;-68
2022/06/04 07:19:25;;;;;;;1.90;1.80;;;21.40;68.30;;;;;;5077379;28;20177;-68
2022/06/04 07:21:54;;;;;;;2.83;2.00;;;21.40;68.30;;;;;;5077762;28;20168;-67
2022/06/04 07:24:21;;;;;;;2.63;1.90;;;21.40;68.30;;;;;;5076211;28;20203;-68
2022/06/04 07:26:47;;;;;;;2.08;1.98;;;21.40;68.40;;;;;;5076619;28;20231;-67
2022/06/04 07:29:13;;;;;;;2.00;1.88;;;21.50;68.60;;;;;;5077342;28;20185;-68
2022/06/04 07:31:39;;;;;;;2.08;1.88;;;21.40;68.50;;;;;;5093465;28;20262;-69
2022/06/04 07:34:06;;;;;;;1.75;1.65;;;21.50;68.50;;;;;;5094166;28;20189;-68
2022/06/04 07:36:40;;;;;;;1.90;1.80;;;21.40;68.40;;;;;;5077225;28;20180;-68
2022/06/04 07:39:09;;;;;;;2.33;2.13;;;21.40;68.50;;;;;;5076859;28;20192;-67
2022/06/04 07:41:45;;;;;;;2.22;2.03;;;21.50;68.60;;;;;;5077003;28;20173;-67
2022/06/04 07:44:16;;;;;;;1.90;1.80;;;21.50;68.60;;;;;;5076794;28;20173;-68
2022/06/04 07:46:45;;;;;;;1.90;1.80;;;21.40;68.70;;;;;;5076054;28;20205;-67
2022/06/04 07:49:12;;;;;;;1.98;1.85;;;21.50;68.60;;;;;;5076526;28;20228;-67
2022/06/04 07:51:40;;;;;;;2.22;2.05;;;21.40;68.50;;;;;;5076558;28;20209;-67
2022/06/04 07:54:10;;;;;;;2.00;1.83;;;21.50;68.60;;;;;;5076386;28;20181;-68
2022/06/04 07:56:38;;;;;;;1.85;1.65;;;21.50;68.60;;;;;;5076357;28;20184;-68
2022/06/04 07:59:08;;;;;;;2.30;2.10;;;21.50;68.60;;;;;;5076649;28;20184;-69
2022/06/04 08:01:34;;;;;;;2.20;2.00;;;21.50;68.60;;;;;;5076748;28;20188;-69
2022/06/04 08:04:00;;;;;;;2.03;1.90;;;21.50;68.50;;;;;;5093635;28;20189;-69
2022/06/04 08:06:27;;;;;;;2.00;1.90;;;21.50;68.70;;;;;;5075879;28;20189;-67
2022/06/04 08:08:57;;;;;;;1.80;1.70;;;21.50;68.60;;;;;;5076275;28;20185;-68
2022/06/04 08:11:36;;;;;;;2.08;1.98;;;21.50;68.50;;;;;;5076209;28;20205;-68
2022/06/04 08:14:23;;;;;;;2.75;1.70;;;21.50;68.50;;;;;;5075823;28;20169;-67
2022/06/04 08:16:58;;;;;;;2.15;1.95;;;21.50;68.50;;;;;;5076068;28;20204;-67
2022/06/04 08:19:29;;;;;;;1.70;1.60;;;21.50;68.60;;;;;;5075969;28;20180;-68
2022/06/04 08:21:56;;;;;;;2.85;1.73;;;21.50;68.40;;;;;;5076252;28;20213;-68
2022/06/04 08:24:23;;;;;;;2.50;2.20;;;21.50;68.10;;;;;;5076113;28;20192;-68
2022/06/04 08:26:56;;;;;;;2.13;1.92;;;21.50;68.10;;;;;;5075094;28;20200;-68
2022/06/04 08:29:22;;;;;;;1.70;1.60;;;21.50;68.10;;;;;;5076156;28;20185;-69
2022/06/04 08:31:48;;;;;;;2.15;2.05;;;21.60;68.00;;;;;;5075997;28;20745;-68
2022/06/04 08:34:15;;;;;;;2.13;1.60;;;21.60;68.70;;;;;;5076114;28;20176;-68
2022/06/04 08:36:41;;;;;;;1.60;1.50;;;21.60;68.00;;;;;;5075428;28;20204;-69
2022/06/04 08:39:08;;;;;;;1.98;1.80;;;21.60;67.80;;;;;;5075726;28;20184;-69
2022/06/04 08:42:09;;;;;;;2.15;1.73;;;21.70;67.80;;;;;;5075414;28;20184;-68
2022/06/04 08:44:47;;;;;;;1.58;1.48;;;21.60;67.80;;;;;;5070291;28;20192;-68
2022/06/04 08:47:21;;;;;;;2.55;2.00;;;21.60;67.80;;;;;;5075905;28;20208;-69
2022/06/04 08:49:57;;;;;;;1.77;1.67;;;21.70;67.80;;;;;;5075815;28;20799;-68
2022/06/04 08:52:32;;;;;;;1.90;1.65;;;21.70;67.70;;;;;;5093040;28;20263;-67
2022/06/04 08:58:26;;;;;;;1.50;1.40;;;21.70;67.60;;;;;;5086847;28;20209;-68
2022/06/04 09:01:27;;;;;;;1.95;1.77;;;21.60;67.50;;;;;;5055207;28;20251;-69
2022/06/04 09:04:29;;;;;;;1.80;1.70;;;21.70;67.90;;;;;;5023760;28;20193;-69
2022/06/04 09:07:12;;;;;;;1.77;1.58;;;21.70;67.70;;;;;;5055216;28;20296;-67
2022/06/04 09:09:48;;;;;;;2.15;1.65;;;21.70;67.70;;;;;;5071814;28;20193;-69
2022/06/04 09:12:39;;;;;;;1.88;1.77;;;21.70;67.60;;;;;;5072007;28;20567;-68
2022/06/04 09:15:24;;;;;;;2.00;1.77;;;21.70;67.60;;;;;;5060733;28;20243;-69
2022/06/04 09:17:54;;;;;;;1.90;1.80;;;21.70;67.50;;;;;;5055162;28;20197;-68
2022/06/04 09:20:40;;;;;;;1.70;1.60;;;21.70;67.60;;;;;;5054842;28;20301;-68
2022/06/04 09:23:18;;;;;;;1.70;1.60;;;21.70;67.60;;;;;;5054772;28;20189;-69
2022/06/04 09:26:06;;;;;;;1.67;1.58;;;21.80;67.70;;;;;;5055048;28;20192;-67
2022/06/04 09:29:15;;;;;;;1.90;1.65;;;21.70;67.50;;;;;;5055060;28;20664;-68
2022/06/04 09:32:14;;;;;;;1.60;1.50;;;21.70;67.70;;;;;;5054948;28;20599;-68
2022/06/04 09:34:48;;;;;;;1.88;1.60;;;21.70;67.60;;;;;;5055160;28;20193;-68
2022/06/04 09:37:14;;;;;;;1.40;1.30;;;21.80;67.50;;;;;;5054437;28;20296;-70
2022/06/04 09:39:47;;;;;;;2.55;1.67;;;21.70;68.30;;;;;;5070647;28;20186;-68
2022/06/04 09:42:15;;;;;;;1.95;1.60;;;21.70;67.60;;;;;;5058484;28;20268;-67
2022/06/04 09:45:26;;;;;;;1.70;1.60;;;21.70;68.40;;;;;;5055914;28;20648;-68
2022/06/04 09:47:56;;;;;;;1.65;1.55;;;21.80;67.70;;;;;;5047487;28;20638;-68
2022/06/04 09:50:37;;;;;;;1.70;1.60;;;21.70;67.50;;;;;;5054423;28;20296;-68
2022/06/04 09:53:09;;;;;;;1.60;1.50;;;21.70;67.60;;;;;;5054945;28;20264;-68
2022/06/04 09:55:37;;;;;;;1.63;1.52;;;21.70;67.50;;;;;;5054501;28;20182;-67
2022/06/04 09:58:18;;;;;;;1.88;1.70;;;21.70;67.70;;;;;;5054541;28;20206;-67
2022/06/04 10:01:03;;;;;;;2.80;1.48;;;21.80;67.70;;;;;;5054303;28;20239;-68
2022/06/04 10:03:34;;;;;;;1.75;1.65;;;21.80;67.80;;;;;;5054417;28;20189;-68
2022/06/04 10:06:24;;;;;;;2.47;1.60;;;21.80;67.80;;;;;;5054221;28;20197;-68
2022/06/04 10:11:57;;;;;;;2.20;1.83;;;21.80;68.70;;;;;;5093907;28;20230;-68
2022/06/04 10:14:33;;;;;;;1.60;1.50;;;21.80;68.10;;;;;;5074223;28;20222;-69
2022/06/04 10:17:01;;;;;;;2.40;1.60;;;21.80;69.00;;;;;;5074285;28;20628;-68
2022/06/04 10:19:30;;;;;;;1.73;1.38;;;21.80;68.60;;;;;;5074141;28;20184;-67
2022/06/04 10:22:12;;;;;;;1.80;1.70;;;21.80;68.00;;;;;;5074289;28;20189;-66
2022/06/04 10:25:02;;;;;;;1.92;1.80;;;21.80;68.40;;;;;;5074246;28;20196;-67
2022/06/04 10:27:54;;;;;;;1.75;1.65;;;21.80;68.20;;;;;;5070848;28;20205;-67
2022/06/04 10:30:55;;;;;;;1.50;1.40;;;21.80;68.60;;;;;;5057662;28;20206;-68
2022/06/04 10:33:33;;;;;;;1.70;1.60;;;21.80;68.90;;;;;;5063034;28;20667;-67
2022/06/04 10:36:43;;;;;;;1.40;1.38;;;21.80;68.80;;;;;;5074081;28;20181;-67
2022/06/04 10:39:21;;;;;;;2.70;1.50;;;21.80;68.90;;;;;;5075223;28;20188;-68
2022/06/04 10:42:06;;;;;;;1.42;1.30;;;21.80;68.60;;;;;;5074150;28;20192;-68
2022/06/04 10:45:12;;;;;;;1.75;1.50;;;21.80;68.90;;;;;;5073993;28;20226;-67
2022/06/04 10:48:10;;;;;;;2.28;1.70;;;21.80;68.70;;;;;;5064887;28;20212;-67
2022/06/04 10:53:43;;;;;;;2.45;1.58;;;21.80;69.60;;;;;;5094893;28;20210;-67
2022/06/04 10:56:18;;;;;;;1.80;1.70;;;21.80;69.20;;;;;;5077888;28;20239;-68
2022/06/04 10:59:00;;;;;;;1.50;1.40;;;21.90;68.80;;;;;;5077515;28;20185;-67
2022/06/04 11:01:39;;;;;;;2.78;1.45;;;21.90;69.00;;;;;;5077494;28;20197;-67
2022/06/04 11:04:46;;;;;;;1.85;1.55;;;21.90;69.30;;;;;;5077615;28;20184;-68
2022/06/04 11:07:23;;;;;;;1.95;1.42;;;21.90;69.30;;;;;;5077624;28;20303;-68
2022/06/04 11:09:52;;;;;;;1.50;1.40;;;21.80;69.10;;;;;;5077610;28;20699;-69
2022/06/04 11:12:40;;;;;;;1.50;1.40;;;21.90;69.00;;;;;;5094594;28;20173;-66
2022/06/04 11:15:23;;;;;;;3.13;1.70;;;21.90;69.00;;;;;;5077615;28;20209;-68
2022/06/04 11:18:15;;;;;;;2.17;1.80;;;21.80;69.10;;;;;;5077701;28;20205;-69
2022/06/04 11:20:54;;;;;;;1.40;1.30;;;21.90;69.20;;;;;;5077372;28;20185;-69
2022/06/04 11:23:44;;;;;;;1.50;1.40;;;21.80;69.20;;;;;;5099527;28;20278;-69
2022/06/04 11:26:20;;;;;;;2.40;1.48;;;21.80;69.30;;;;;;5114287;28;20184;-69
2022/06/04 11:28:46;;;;;;;2.30;1.80;;;21.80;69.70;;;;;;5113907;28;20191;-69
2022/06/04 11:31:28;;;;;;;1.95;1.55;;;21.90;69.00;;;;;;5097945;28;20215;-69
2022/06/04 11:34:21;;;;;;;1.80;1.70;;;21.90;69.40;;;;;;5097568;28;20210;-69
2022/06/04 11:37:23;;;;;;;1.70;1.58;;;21.90;69.60;;;;;;5114181;28;20295;-69
2022/06/04 11:40:10;;;;;;;2.58;1.50;;;21.90;69.30;;;;;;5114134;28;20188;-68
2022/06/04 11:42:58;;;;;;;2.10;1.58;;;21.90;69.80;;;;;;5097294;28;20635;-69
2022/06/04 11:46:12;;;;;;;2.08;1.58;;;21.90;69.80;;;;;;5085136;28;20185;-69
2022/06/04 11:48:53;;;;;;;3.20;1.80;;;21.90;69.50;;;;;;5076910;28;20209;-69
2022/06/04 11:52:12;;;;;;;1.75;1.65;;;21.90;69.80;;;;;;5076952;28;20216;-69
2022/06/04 11:55:29;;;;;;;1.60;1.50;;;21.90;69.90;;;;;;5073169;28;20178;-68
2022/06/04 11:58:19;;;;;;;1.80;1.70;;;22.00;69.90;;;;;;5076621;28;20213;-69
2022/06/04 12:00:48;;;;;;;2.13;1.58;;;21.90;69.60;;;;;;5076518;28;20196;-69
2022/06/04 12:03:34;;;;;;;3.33;1.75;;;21.90;69.80;;;;;;5093322;28;20221;-69
2022/06/04 12:06:15;;;;;;;1.85;1.50;;;22.00;69.90;;;;;;5075639;28;20621;-69
2022/06/04 12:08:51;;;;;;;1.58;1.48;;;22.00;70.00;;;;;;5071084;28;20220;-69
2022/06/04 12:12:23;;;;;;;2.45;1.75;;;21.90;69.70;;;;;;5054259;28;20255;-68
2022/06/04 12:15:14;;;;;;;1.77;1.67;;;21.90;69.80;;;;;;4993601;28;20187;-69
2022/06/04 12:18:16;;;;;;;3.38;1.67;;;22.00;69.50;;;;;;4976616;28;20212;-69
2022/06/04 12:26:27;;;;;;;2.83;1.77;;;22.00;69.90;;;;;;5070374;28;20186;-69
2022/06/04 12:28:54;;;;;;;4.03;1.85;;;22.00;70.00;;;;;;5051664;28;20188;-69
2022/06/04 12:31:36;;;;;;;2.90;1.95;;;22.00;70.60;;;;;;5051959;28;20213;-69
2022/06/04 12:34:34;;;;;;;3.25;2.00;;;21.90;70.30;;;;;;5053463;28;20217;-69
2022/06/04 12:37:01;;;;;;;2.10;2.00;;;22.00;70.10;;;;;;5053411;28;20220;-69
2022/06/04 12:39:37;;;;;;;2.38;2.13;;;22.00;70.20;;;;;;5053110;28;20217;-69
2022/06/04 12:42:25;;;;;;;3.35;2.13;;;21.90;70.40;;;;;;5052530;28;20173;-69
2022/06/04 12:45:06;;;;;;;2.80;2.00;;;21.90;69.90;;;;;;5053076;28;20268;-69
2022/06/04 12:47:36;;;;;;;2.35;2.00;;;21.90;70.50;;;;;;5053273;28;20696;-69
2022/06/04 12:50:18;;;;;;;2.63;1.65;;;22.00;70.10;;;;;;5053120;28;20304;-69
2022/06/04 12:52:49;;;;;;;2.53;2.20;;;21.90;70.70;;;;;;5053107;28;20637;-69
2022/06/04 12:55:32;;;;;;;1.98;1.77;;;22.00;70.50;;;;;;5053210;28;20189;-69
2022/06/04 12:58:03;;;;;;;2.10;1.90;;;22.00;71.00;;;;;;5053001;28;20229;-69
2022/06/04 13:00:40;;;;;;;2.13;1.88;;;21.90;70.50;;;;;;5053407;28;20190;-69
2022/06/04 13:03:06;;;;;;;2.95;2.20;;;21.90;70.70;;;;;;5055230;28;20178;-69
2022/06/04 13:05:55;;;;;;;2.88;2.05;;;22.00;71.00;;;;;;5055139;28;20248;-69
2022/06/04 13:08:28;;;;;;;2.90;2.05;;;22.00;70.80;;;;;;5055014;28;20263;-68
2022/06/04 13:10:57;;;;;;;2.50;2.30;;;21.90;71.20;;;;;;5071511;28;20256;-68
2022/06/04 13:13:48;;;;;;;3.55;2.13;;;21.90;71.00;;;;;;5054673;28;20193;-69
2022/06/04 13:16:28;;;;;;;2.85;2.20;;;22.00;70.90;;;;;;5054622;28;20181;-69
2022/06/04 13:19:08;;;;;;;3.15;2.15;;;22.00;70.60;;;;;;5054487;28;20189;-69
2022/06/04 13:21:40;;;;;;;2.38;1.95;;;22.00;71.00;;;;;;5054538;28;20213;-69
2022/06/04 13:24:22;;;;;;;2.17;2.03;;;22.00;71.00;;;;;;5054756;28;20185;-69
2022/06/04 13:27:02;;;;;;;2.63;2.30;;;22.00;71.10;;;;;;5054564;28;20649;-69
2022/06/04 13:29:31;;;;;;;2.88;2.22;;;22.00;71.10;;;;;;5054438;28;20183;-69
2022/06/04 13:32:12;;;;;;;2.55;2.17;;;22.00;71.30;;;;;;5054538;28;20293;-69
2022/06/04 13:34:39;;;;;;;4.40;2.60;;;22.00;71.60;;;;;;5054482;28;20178;-69
2022/06/04 13:37:18;;;;;;;2.50;2.28;;;22.00;71.70;;;;;;5054236;28;20227;-69
2022/06/04 13:39:48;;;;;;;2.90;2.28;;;22.00;71.10;;;;;;5054412;28;20182;-68
2022/06/04 13:42:33;;;;;;;2.30;2.10;;;22.00;71.40;;;;;;5054522;28;20185;-69
2022/06/04 13:45:08;;;;;;;2.47;2.00;;;22.00;71.10;;;;;;5054416;28;20177;-68
2022/06/04 13:47:39;;;;;;;2.47;2.28;;;22.00;71.40;;;;;;5054435;28;20207;-69
2022/06/04 13:50:05;;;;;;;3.50;2.50;;;22.00;71.60;;;;;;5053882;28;20252;-68
2022/06/04 13:52:49;;;;;;;3.70;2.40;;;22.00;71.40;;;;;;5054553;28;20217;-69
2022/06/04 13:55:41;;;;;;;2.60;2.40;;;22.00;71.70;;;;;;5054255;28;20174;-68
2022/06/04 13:58:17;;;;;;;2.78;2.20;;;22.00;71.40;;;;;;5055751;28;20206;-68